Amston, CT (06231)

4:07 AM EST on March 05, 2015 (GMT -0500)
Amston | Change Station
CLOSE
Current Station
Personal Weather Station
Location: Amston, CT
Elevation: 459 ft
Nearby Weather Stations

Elev 459 ft 41.64 °N, 72.36 °W | Updated 3 minutes ago

Snow
Snow
32.3 °F
Feels Like 32 °F
N
0.0
Wind Variable Wind from NNW
Gusts 1.0 mph

Today
High -- | Low -- °F
--% Chance of Precip.
Yesterday
High -- | Low -- °F
Precip. -- in
6:18 AM 5:44 PM
Full, 100% visible
Pressure 29.90 in
Visibility 3.0 miles
Clouds Overcast 3000 ft
Windchill 32 °F
Dew Point 30 °F
Humidity 89%
Rainfall in
Snow Depth Not available.
UV 0 out of 12
Pollen .50 out of 12
Air Quality Not available.
Flu Activity Not available.
SPECI KIJD 050859Z AUTO 35003KT 3SM -SN BR OVC030 00/M02 A2990 RMK AO2 P0001 T00001022

More Conditions Fewer Conditions

Pressure 29.90 in
Visibility 3.0 miles
Clouds Overcast 3000 ft
Windchill 32 °F
Dew Point 30 °F
Humidity 89%
Rainfall in
Snow Depth Not available.
UV 0 out of 12
Pollen .50 out of 12
Air Quality Not available.
Flu Activity Not available.
SPECI KIJD 050859Z AUTO 35003KT 3SM -SN BR OVC030 00/M02 A2990 RMK AO2 P0001 T00001022

More Conditions Fewer Conditions

10-Day Weather Forecast

Almanac

Astronomy

Mar. 05, 2015 Rise Set
Actual Time
Civil Twilight
Nautical Twilight
Astronomical Twilight
Moon
Length of Visible Light
Length of Day
Tomorrow will be .
, % of the Moon is Illuminated

Today's Extremes

State Highs State Lows

Community

WunderPhotos

Upload Photos

1,802,704 photos uploaded!

WunderBlogs® & News

Nearby

Air Quality

  Air Quality AQ Index Pollutant
Not available.

Snow Depth

Station Depth Elevation

Earthquake Activity

City Distance Mag. Time & Date
Minimum magnitude displayed is 2.5.

Coastal Water Temperatures

Place Temperature

Nearby Weather Stations